Time;durP1;ratioP1;P1;durP2;ratioP2;P2;SDS_P1;SDS_P2;PMS_P1;PMS_P2;Temp;Humidity;BMP_temperature;BMP_pressure;BME280_temperature;BME280_humidity;BME280_pressure;Samples;Min_cycle;Max_cycle;Signal;HPM_P1;HPM_P2
2022/05/26 00:01:05;;;;;;;2.33;1.03;;;14.20;91.00;;;;;;5069296;28;20694;-61
2022/05/26 00:03:42;;;;;;;1.70;1.30;;;14.10;91.00;;;;;;5054818;28;20229;-61
2022/05/26 00:06:11;;;;;;;2.30;1.23;;;14.10;91.00;;;;;;5075547;28;20174;-61
2022/05/26 00:08:38;;;;;;;2.83;1.00;;;14.00;91.10;;;;;;5060666;28;20193;-61
2022/05/26 00:11:07;;;;;;;2.67;1.20;;;13.90;91.00;;;;;;5077844;28;20166;-59
2022/05/26 00:13:37;;;;;;;2.60;1.10;;;13.90;90.90;;;;;;5076828;28;20239;-60
2022/05/26 00:16:04;;;;;;;4.50;1.07;;;13.80;90.80;;;;;;5093751;28;20186;-61
2022/05/26 00:18:30;;;;;;;3.27;1.03;;;13.80;90.70;;;;;;5076991;28;20190;-59
2022/05/26 00:20:56;;;;;;;4.50;1.20;;;13.70;90.80;;;;;;5077493;28;20243;-60
2022/05/26 00:23:22;;;;;;;1.10;1.00;;;13.70;90.60;;;;;;5076486;28;20213;-60
2022/05/26 00:25:47;;;;;;;6.53;1.17;;;13.60;90.60;;;;;;5059935;28;20204;-60
2022/05/26 00:28:13;;;;;;;5.67;1.30;;;13.60;90.60;;;;;;5060077;28;20202;-61
2022/05/26 00:30:39;;;;;;;4.13;1.40;;;13.50;90.70;;;;;;5043231;28;20197;-60
2022/05/26 00:33:07;;;;;;;4.70;1.10;;;13.50;90.80;;;;;;5059897;28;20224;-60
2022/05/26 00:35:34;;;;;;;2.60;1.57;;;13.40;90.90;;;;;;5076385;28;20303;-60
2022/05/26 00:38:04;;;;;;;1.93;1.20;;;13.40;91.00;;;;;;5075822;28;20196;-60
2022/05/26 00:40:31;;;;;;;1.30;0.97;;;13.40;91.00;;;;;;5059528;28;20196;-59
2022/05/26 00:42:58;;;;;;;1.63;1.00;;;13.40;91.00;;;;;;5072572;28;20244;-61
2022/05/26 00:45:25;;;;;;;1.83;1.20;;;13.30;91.00;;;;;;5077301;28;20193;-61
2022/05/26 00:47:51;;;;;;;1.63;1.17;;;13.30;90.90;;;;;;5056021;28;20194;-60
2022/05/26 00:50:23;;;;;;;2.03;1.00;;;13.30;90.90;;;;;;5075556;28;20251;-61
2022/05/26 00:52:49;;;;;;;3.43;1.00;;;13.30;90.80;;;;;;5076237;28;20178;-60
2022/05/26 00:55:27;;;;;;;5.83;1.00;;;13.20;90.60;;;;;;5076550;28;20280;-61
2022/05/26 00:58:00;;;;;;;1.87;0.87;;;13.20;90.80;;;;;;5075211;28;20200;-60
2022/05/26 01:00:30;;;;;;;3.90;1.10;;;13.20;90.80;;;;;;5076382;28;20189;-60
2022/05/26 01:03:16;;;;;;;2.97;1.07;;;13.10;90.70;;;;;;5075431;28;20213;-60
2022/05/26 01:06:01;;;;;;;3.70;1.40;;;13.00;90.60;;;;;;5075772;28;20173;-60
2022/05/26 01:08:55;;;;;;;1.50;1.13;;;13.00;90.70;;;;;;5075402;28;20193;-61
2022/05/26 01:11:23;;;;;;;2.53;0.90;;;13.00;90.80;;;;;;5072925;28;20201;-60
2022/05/26 01:13:59;;;;;;;1.60;1.00;;;12.90;90.70;;;;;;5075155;28;20201;-60
2022/05/26 01:16:48;;;;;;;3.10;1.10;;;12.90;90.70;;;;;;5075735;28;20175;-60
2022/05/26 01:19:27;;;;;;;1.40;1.10;;;12.90;90.70;;;;;;5075809;28;20190;-60
2022/05/26 01:22:05;;;;;;;0.93;0.90;;;12.80;90.80;;;;;;5075877;28;20206;-61
2022/05/26 01:24:59;;;;;;;2.73;1.17;;;12.80;90.90;;;;;;5075659;28;20174;-60
2022/05/26 01:27:35;;;;;;;2.60;1.37;;;12.80;90.80;;;;;;5065810;28;20185;-61
2022/05/26 01:30:27;;;;;;;0.93;0.90;;;12.80;90.90;;;;;;5055494;28;20170;-60
2022/05/26 01:33:04;;;;;;;2.47;1.27;;;12.70;90.80;;;;;;5071453;28;20190;-61
2022/05/26 01:35:39;;;;;;;3.97;0.90;;;12.70;91.00;;;;;;5074569;28;20310;-60
2022/05/26 01:38:11;;;;;;;2.20;0.90;;;12.70;91.10;;;;;;5075330;28;20190;-60
2022/05/26 01:40:54;;;;;;;2.27;1.00;;;12.60;91.00;;;;;;5076047;28;20193;-59
2022/05/26 01:43:50;;;;;;;2.43;1.00;;;12.70;91.10;;;;;;5075268;28;20305;-59
2022/05/26 01:46:36;;;;;;;3.67;1.40;;;12.60;91.10;;;;;;5074870;28;20193;-61
2022/05/26 01:49:11;;;;;;;0.97;0.97;;;12.60;91.10;;;;;;5091847;28;20181;-61
2022/05/26 01:51:51;;;;;;;1.70;1.30;;;12.60;91.10;;;;;;5063383;28;20189;-60
2022/05/26 01:54:28;;;;;;;2.00;1.10;;;12.60;91.20;;;;;;5071511;28;20224;-60
2022/05/26 01:57:10;;;;;;;1.70;1.07;;;12.60;91.20;;;;;;5071515;28;20178;-60
2022/05/26 01:59:52;;;;;;;3.33;1.20;;;12.60;91.10;;;;;;5083992;28;20186;-61
2022/05/26 02:02:30;;;;;;;3.60;1.13;;;12.60;91.20;;;;;;5076080;28;20227;-60
2022/05/26 02:05:07;;;;;;;5.00;1.37;;;12.50;91.10;;;;;;5074109;28;20198;-60
2022/05/26 02:07:42;;;;;;;3.33;1.23;;;12.50;91.20;;;;;;5075242;28;20174;-61
2022/05/26 02:10:16;;;;;;;5.23;1.97;;;12.50;91.20;;;;;;5075313;28;20240;-60
2022/05/26 02:12:46;;;;;;;2.60;1.20;;;12.50;91.20;;;;;;5071193;28;20194;-61
2022/05/26 02:15:17;;;;;;;1.80;1.30;;;12.50;91.20;;;;;;5074861;28;20644;-60
2022/05/26 02:17:51;;;;;;;2.00;1.20;;;12.50;91.20;;;;;;5075558;28;20170;-60
2022/05/26 02:20:32;;;;;;;2.70;1.20;;;12.50;91.30;;;;;;5074158;28;20223;-60
2022/05/26 02:23:04;;;;;;;5.00;1.40;;;12.40;91.30;;;;;;5091061;28;20210;-59
2022/05/26 02:25:30;;;;;;;2.33;1.50;;;12.50;91.30;;;;;;5073770;28;20253;-60
2022/05/26 02:27:57;;;;;;;3.83;1.50;;;12.50;91.30;;;;;;5056977;28;20281;-60
2022/05/26 02:30:31;;;;;;;3.40;1.17;;;12.50;91.40;;;;;;5057744;28;20194;-60
2022/05/26 02:32:58;;;;;;;1.53;1.30;;;12.50;91.40;;;;;;5075377;28;20173;-60
2022/05/26 02:35:29;;;;;;;2.27;1.40;;;12.50;91.50;;;;;;5074167;28;20285;-60
2022/05/26 02:38:08;;;;;;;2.63;1.20;;;12.50;91.20;;;;;;5074395;28;20194;-60
2022/05/26 02:40:34;;;;;;;1.27;0.97;;;12.60;91.40;;;;;;5073861;28;20194;-60
2022/05/26 02:43:18;;;;;;;1.63;1.53;;;12.50;91.30;;;;;;5073681;28;20221;-60
2022/05/26 02:46:08;;;;;;;2.80;1.30;;;12.50;91.40;;;;;;5073574;28;20181;-60
2022/05/26 02:49:02;;;;;;;2.50;1.67;;;12.60;91.40;;;;;;5073866;28;20260;-60
2022/05/26 02:51:58;;;;;;;2.73;1.40;;;12.60;91.30;;;;;;5073808;28;20174;-60
2022/05/26 02:54:40;;;;;;;3.67;1.53;;;12.60;91.30;;;;;;5073611;28;20231;-60
2022/05/26 02:57:35;;;;;;;1.80;1.10;;;12.60;91.30;;;;;;5073724;28;20249;-60
2022/05/26 03:00:10;;;;;;;4.80;1.30;;;12.60;91.30;;;;;;5074691;28;20177;-61
2022/05/26 03:03:10;;;;;;;3.33;1.20;;;12.60;91.20;;;;;;5072744;28;20205;-60
2022/05/26 03:05:51;;;;;;;3.47;1.40;;;12.60;91.10;;;;;;5056524;28;20183;-60
2022/05/26 03:08:21;;;;;;;3.23;1.23;;;12.70;91.10;;;;;;5053688;28;20175;-60
2022/05/26 03:10:49;;;;;;;2.10;1.20;;;12.70;91.10;;;;;;5071590;28;20188;-60
2022/05/26 03:13:16;;;;;;;2.50;1.10;;;12.70;91.10;;;;;;5073472;28;20195;-59
2022/05/26 03:15:41;;;;;;;1.70;1.23;;;12.80;91.10;;;;;;5073371;28;20289;-59
2022/05/26 03:18:07;;;;;;;2.33;1.00;;;12.80;91.20;;;;;;5056907;28;20272;-60
2022/05/26 03:20:33;;;;;;;1.83;1.20;;;12.80;91.20;;;;;;5056506;28;20193;-60
2022/05/26 03:22:59;;;;;;;2.13;1.20;;;12.80;91.10;;;;;;5056544;28;20243;-60
2022/05/26 03:25:24;;;;;;;4.00;1.30;;;12.80;90.90;;;;;;5072854;28;20193;-60
2022/05/26 03:27:50;;;;;;;2.13;1.10;;;12.70;91.00;;;;;;5073370;28;20193;-60
2022/05/26 03:30:16;;;;;;;1.37;1.07;;;12.70;90.90;;;;;;5056554;28;20193;-60
2022/05/26 03:32:42;;;;;;;3.23;2.03;;;12.70;90.90;;;;;;5073176;28;20193;-60
2022/05/26 03:40:57;;;;;;;4.27;1.47;;;12.70;90.90;;;;;;5073721;28;20231;-60
2022/05/26 03:43:36;;;;;;;1.83;1.30;;;12.70;90.90;;;;;;5058043;28;20236;-60
2022/05/26 03:46:02;;;;;;;1.47;1.20;;;12.70;91.00;;;;;;5074289;28;20172;-60
2022/05/26 03:48:28;;;;;;;1.17;1.07;;;12.70;91.00;;;;;;5073037;28;20194;-60
2022/05/26 03:50:54;;;;;;;2.67;1.53;;;12.70;90.90;;;;;;5073067;28;20169;-59
2022/05/26 03:53:20;;;;;;;3.23;1.53;;;12.80;91.00;;;;;;5039512;28;20224;-59
2022/05/26 03:55:45;;;;;;;1.50;1.17;;;12.80;90.90;;;;;;5056630;28;20174;-59
2022/05/26 03:58:11;;;;;;;2.53;1.50;;;12.80;90.90;;;;;;5055804;28;20240;-59
2022/05/26 04:00:37;;;;;;;3.03;1.50;;;12.80;90.90;;;;;;5039453;28;20193;-60
2022/05/26 04:03:04;;;;;;;2.57;1.23;;;12.80;90.80;;;;;;5056617;28;20591;-60
2022/05/26 04:05:30;;;;;;;3.57;1.37;;;12.80;90.70;;;;;;5073809;28;20240;-58
2022/05/26 04:07:56;;;;;;;3.83;1.70;;;12.80;90.70;;;;;;5039984;28;20265;-60
2022/05/26 04:10:22;;;;;;;4.53;1.43;;;12.80;90.50;;;;;;5056501;28;20182;-59
2022/05/26 04:12:48;;;;;;;1.77;1.47;;;12.80;90.40;;;;;;5039416;28;20288;-59
2022/05/26 04:15:15;;;;;;;1.80;1.40;;;12.80;90.40;;;;;;5073056;28;20182;-60
2022/05/26 04:17:41;;;;;;;3.23;1.50;;;12.80;90.50;;;;;;5056232;28;20185;-60
2022/05/26 04:20:10;;;;;;;2.20;1.53;;;12.80;90.60;;;;;;5072684;28;20186;-59
2022/05/26 04:22:35;;;;;;;1.97;1.57;;;12.80;90.70;;;;;;5073656;28;20258;-60
2022/05/26 04:25:02;;;;;;;4.27;1.70;;;12.80;90.70;;;;;;5072337;28;20178;-60
2022/05/26 04:27:31;;;;;;;4.80;1.50;;;12.90;90.40;;;;;;5056049;28;20189;-60
2022/05/26 04:29:57;;;;;;;3.77;1.77;;;12.90;90.60;;;;;;5072442;28;20208;-60
2022/05/26 04:32:24;;;;;;;5.87;2.20;;;13.00;90.60;;;;;;5072547;28;20182;-60
2022/05/26 04:34:51;;;;;;;4.67;2.20;;;13.00;90.60;;;;;;5072370;28;20272;-60
2022/05/26 04:37:18;;;;;;;4.77;2.00;;;13.20;90.60;;;;;;5056239;28;20203;-60
2022/05/26 04:39:44;;;;;;;3.47;1.90;;;13.20;90.60;;;;;;5070865;28;20271;-63
2022/05/26 04:42:10;;;;;;;2.90;1.77;;;13.20;90.00;;;;;;5035550;28;20285;-62
2022/05/26 04:44:39;;;;;;;4.77;2.00;;;13.30;89.70;;;;;;5042548;28;20210;-63
2022/05/26 04:47:05;;;;;;;2.20;1.77;;;13.30;89.50;;;;;;5057863;28;20179;-63
2022/05/26 04:49:31;;;;;;;2.60;2.10;;;13.30;89.60;;;;;;5059713;28;20193;-62
2022/05/26 04:51:57;;;;;;;4.13;2.13;;;13.30;89.80;;;;;;5043469;28;20202;-62
2022/05/26 04:54:24;;;;;;;3.93;1.70;;;13.30;90.20;;;;;;5041771;28;20194;-63
2022/05/26 04:56:49;;;;;;;5.50;2.20;;;13.40;90.00;;;;;;5044529;28;20189;-63
2022/05/26 04:59:16;;;;;;;5.23;1.90;;;13.40;90.10;;;;;;5058145;28;20194;-62
2022/05/26 05:01:42;;;;;;;2.60;1.90;;;13.50;90.20;;;;;;5073993;28;20272;-61
2022/05/26 05:04:08;;;;;;;2.20;2.00;;;13.50;90.30;;;;;;5073499;28;20197;-62
2022/05/26 05:06:34;;;;;;;2.70;2.17;;;13.60;90.20;;;;;;5042156;28;20181;-62
2022/05/26 05:09:00;;;;;;;5.13;2.13;;;13.60;90.10;;;;;;5057552;28;20520;-62
2022/05/26 05:11:26;;;;;;;2.30;2.10;;;13.60;89.80;;;;;;5057845;28;20178;-62
2022/05/26 05:13:53;;;;;;;3.17;2.53;;;13.60;89.70;;;;;;5057907;28;20220;-62
2022/05/26 05:16:23;;;;;;;4.00;1.90;;;13.60;89.80;;;;;;5076335;28;20208;-61
2022/05/26 05:18:50;;;;;;;4.23;2.00;;;13.60;89.60;;;;;;5069500;28;20197;-61
2022/05/26 05:21:22;;;;;;;4.73;2.10;;;13.60;89.50;;;;;;5038928;28;20237;-62
2022/05/26 05:23:54;;;;;;;2.50;2.23;;;13.60;89.50;;;;;;5069832;28;20212;-60
2022/05/26 05:26:22;;;;;;;2.10;1.90;;;13.70;89.60;;;;;;5076134;28;20166;-62
2022/05/26 05:29:00;;;;;;;4.63;2.00;;;13.80;89.50;;;;;;5052821;28;20197;-61
2022/05/26 05:31:31;;;;;;;3.67;2.13;;;13.80;89.40;;;;;;5057611;28;20178;-61
2022/05/26 05:34:20;;;;;;;2.97;2.40;;;13.80;89.70;;;;;;5064964;28;20209;-61
2022/05/26 05:36:46;;;;;;;3.37;2.23;;;13.90;89.60;;;;;;5068847;28;20177;-61
2022/05/26 05:39:12;;;;;;;7.57;3.03;;;14.00;89.40;;;;;;5059963;28;20251;-61
2022/05/26 05:41:38;;;;;;;3.53;2.50;;;14.00;89.40;;;;;;5067702;28;20256;-61
2022/05/26 05:44:05;;;;;;;4.87;2.73;;;14.10;89.50;;;;;;5057054;28;20182;-62
2022/05/26 05:46:34;;;;;;;3.07;2.53;;;14.10;89.20;;;;;;5056191;28;20195;-62
2022/05/26 05:49:04;;;;;;;6.77;2.60;;;14.20;89.00;;;;;;5054198;28;20190;-63
2022/05/26 05:51:35;;;;;;;6.20;2.20;;;14.20;89.20;;;;;;5062442;28;20285;-63
2022/05/26 05:54:01;;;;;;;4.17;2.37;;;14.20;89.00;;;;;;5037054;28;20194;-62
2022/05/26 05:56:26;;;;;;;6.53;2.37;;;14.30;89.20;;;;;;5036330;28;20186;-62
2022/05/26 05:58:53;;;;;;;5.40;2.63;;;14.30;89.20;;;;;;5037575;28;20214;-64
2022/05/26 06:01:19;;;;;;;5.13;2.47;;;14.40;89.30;;;;;;5037088;28;20190;-64
2022/05/26 06:03:46;;;;;;;6.13;2.97;;;14.40;89.00;;;;;;5059846;28;20240;-63
2022/05/26 06:06:12;;;;;;;6.90;2.73;;;14.50;89.10;;;;;;5040923;28;20296;-64
2022/05/26 06:08:39;;;;;;;6.47;3.03;;;14.50;89.30;;;;;;5055262;28;20190;-62
2022/05/26 06:11:04;;;;;;;3.77;2.67;;;14.60;89.30;;;;;;5039405;28;20197;-63
2022/05/26 06:13:30;;;;;;;4.37;2.60;;;14.60;89.00;;;;;;5039718;28;20185;-61
2022/05/26 06:15:56;;;;;;;3.23;2.93;;;14.60;87.90;;;;;;5039739;28;20189;-60
2022/05/26 06:18:21;;;;;;;3.37;2.53;;;14.70;88.50;;;;;;5063044;28;20194;-60
2022/05/26 06:20:48;;;;;;;4.30;2.83;;;14.80;88.10;;;;;;5036106;28;20225;-62
2022/05/26 06:23:17;;;;;;;4.23;3.00;;;14.80;87.90;;;;;;5043979;28;20225;-60
2022/05/26 06:25:43;;;;;;;5.63;3.03;;;15.00;87.60;;;;;;5058926;28;20197;-60
2022/05/26 06:30:52;;;;;;;3.73;2.80;;;15.10;87.20;;;;;;5072968;28;20179;-61
2022/05/26 06:38:47;;;;;;;6.60;2.90;;;15.20;86.90;;;;;;5059594;28;20205;-62
2022/05/26 06:44:09;;;;;;;3.73;2.63;;;15.20;85.70;;;;;;5044032;28;20210;-64
2022/05/26 06:46:34;;;;;;;4.07;3.27;;;15.30;85.90;;;;;;5056943;28;20198;-63
2022/05/26 06:49:00;;;;;;;4.17;3.07;;;15.30;86.60;;;;;;5056662;28;20186;-61
2022/05/26 06:51:29;;;;;;;6.47;3.37;;;15.30;86.80;;;;;;5060028;28;20194;-61
2022/05/26 06:53:55;;;;;;;7.60;3.83;;;15.30;87.20;;;;;;5064843;28;20182;-61
2022/05/26 06:56:21;;;;;;;4.80;3.33;;;15.40;87.20;;;;;;5056875;28;20190;-61
2022/05/26 06:58:46;;;;;;;4.23;3.40;;;15.50;86.90;;;;;;5035921;28;20194;-59
2022/05/26 07:01:14;;;;;;;6.70;3.20;;;15.60;87.40;;;;;;5052358;28;20182;-61
2022/05/26 07:03:41;;;;;;;3.80;3.00;;;15.60;86.30;;;;;;5052889;28;20270;-61
2022/05/26 07:06:13;;;;;;;3.87;3.37;;;15.80;86.20;;;;;;5064287;28;20191;-60
2022/05/26 07:08:39;;;;;;;3.90;3.50;;;15.80;87.10;;;;;;5058028;28;20200;-61
2022/05/26 07:11:04;;;;;;;3.77;3.30;;;15.90;86.40;;;;;;5037770;28;20191;-61
2022/05/26 07:13:30;;;;;;;8.33;4.43;;;16.00;86.40;;;;;;5070013;28;20209;-62
2022/05/26 07:15:56;;;;;;;5.30;4.20;;;16.00;83.90;;;;;;5054172;28;20603;-61
2022/05/26 07:18:21;;;;;;;7.73;4.60;;;16.10;83.40;;;;;;5037960;28;20247;-60
2022/05/26 07:20:47;;;;;;;6.53;4.27;;;16.20;85.70;;;;;;5054941;28;20194;-60
2022/05/26 07:23:13;;;;;;;4.87;3.47;;;16.30;84.90;;;;;;5037467;28;20216;-61
2022/05/26 07:25:43;;;;;;;6.93;4.17;;;16.30;83.90;;;;;;5037522;28;20199;-61
2022/05/26 07:28:12;;;;;;;5.83;4.20;;;16.40;84.30;;;;;;5055167;28;20197;-60
2022/05/26 07:30:41;;;;;;;6.50;3.83;;;16.40;82.30;;;;;;5038973;28;20175;-62
2022/05/26 07:33:08;;;;;;;7.63;4.40;;;16.40;82.00;;;;;;5058610;28;20240;-61
2022/05/26 07:35:33;;;;;;;10.30;4.77;;;16.40;82.10;;;;;;5039625;28;20202;-60
2022/05/26 07:43:31;;;;;;;8.20;4.67;;;16.50;81.10;;;;;;5064618;28;20225;-61
2022/05/26 07:45:57;;;;;;;7.20;4.33;;;16.60;79.40;;;;;;5055514;28;20177;-62
2022/05/26 07:48:23;;;;;;;5.73;3.80;;;16.60;78.70;;;;;;5037971;28;20197;-63
2022/05/26 07:50:48;;;;;;;8.37;4.13;;;16.60;78.30;;;;;;5055294;28;20249;-62
2022/05/26 07:53:14;;;;;;;8.73;4.60;;;16.70;79.60;;;;;;5054984;28;20212;-62
2022/05/26 07:55:42;;;;;;;7.43;4.43;;;16.80;82.00;;;;;;5034783;28;20190;-63
2022/05/26 07:58:12;;;;;;;8.77;4.47;;;16.80;80.40;;;;;;5050598;28;20191;-62
2022/05/26 08:00:39;;;;;;;6.43;4.07;;;16.80;80.60;;;;;;5051896;28;20193;-61
2022/05/26 08:03:05;;;;;;;8.27;3.87;;;16.90;82.30;;;;;;5055349;28;20225;-62
2022/05/26 08:05:32;;;;;;;5.20;3.87;;;17.00;83.00;;;;;;5054934;28;20185;-62
2022/05/26 08:07:57;;;;;;;7.00;4.17;;;17.00;83.60;;;;;;5053263;28;20208;-61
2022/05/26 08:10:23;;;;;;;7.30;4.30;;;17.10;83.90;;;;;;5056100;28;20191;-62
2022/05/26 08:12:49;;;;;;;7.27;4.57;;;17.30;84.00;;;;;;5050962;28;20195;-62
2022/05/26 08:15:15;;;;;;;6.33;4.27;;;17.30;84.30;;;;;;5053137;28;20194;-61
2022/05/26 08:17:40;;;;;;;7.90;4.10;;;17.40;82.70;;;;;;5038685;28;20190;-61
2022/05/26 08:20:08;;;;;;;6.70;4.07;;;17.60;82.60;;;;;;5057481;28;20201;-61
2022/05/26 08:22:34;;;;;;;6.93;4.20;;;17.60;83.40;;;;;;5057542;28;20230;-61
2022/05/26 08:25:00;;;;;;;9.07;4.23;;;17.70;83.00;;;;;;5053227;28;20217;-61
2022/05/26 08:27:26;;;;;;;7.60;4.40;;;17.80;83.20;;;;;;5073652;28;20186;-61
2022/05/26 08:29:54;;;;;;;5.33;3.67;;;17.90;83.00;;;;;;5043021;28;20197;-61
2022/05/26 08:32:21;;;;;;;5.80;3.90;;;18.00;83.00;;;;;;5055989;28;20213;-62
2022/05/26 08:34:47;;;;;;;6.43;3.90;;;18.00;78.80;;;;;;5055183;28;20201;-60
2022/05/26 08:37:19;;;;;;;6.27;4.00;;;18.10;80.00;;;;;;5037165;28;20229;-60
2022/05/26 08:39:45;;;;;;;6.60;4.13;;;18.20;79.30;;;;;;5056400;28;20168;-60
2022/05/26 08:42:34;;;;;;;4.90;3.10;;;18.30;79.30;;;;;;5063169;28;20275;-61
2022/05/26 08:45:18;;;;;;;6.13;3.80;;;18.30;78.50;;;;;;5067010;28;20188;-60
2022/05/26 08:47:46;;;;;;;7.00;3.83;;;18.40;76.90;;;;;;5057363;28;20193;-61
2022/05/26 08:50:13;;;;;;;5.90;3.97;;;18.60;78.80;;;;;;5074661;28;20208;-60
2022/05/26 08:53:01;;;;;;;6.33;3.77;;;18.70;78.60;;;;;;5074389;28;20326;-61
2022/05/26 08:55:49;;;;;;;7.53;4.30;;;18.70;77.60;;;;;;5074689;28;20189;-61
2022/05/26 08:58:18;;;;;;;7.30;3.97;;;18.80;77.00;;;;;;5065132;28;20191;-61
2022/05/26 09:00:49;;;;;;;6.30;3.50;;;18.90;77.50;;;;;;5053369;28;20221;-60
2022/05/26 09:03:25;;;;;;;7.47;3.50;;;18.90;74.90;;;;;;5058420;28;20210;-61
2022/05/26 09:06:05;;;;;;;4.70;3.57;;;19.10;78.20;;;;;;5075619;28;20190;-60
2022/05/26 09:14:34;;;;;;;4.07;3.63;;;19.30;74.10;;;;;;5074708;28;20172;-61
2022/05/26 09:17:10;;;;;;;6.67;4.07;;;19.40;74.30;;;;;;5073174;28;20670;-61
2022/05/26 09:19:44;;;;;;;6.23;3.53;;;19.60;77.00;;;;;;5055628;28;20170;-62
2022/05/26 09:22:44;;;;;;;6.23;3.57;;;19.70;77.10;;;;;;5054400;28;20217;-61
2022/05/26 09:25:13;;;;;;;7.33;4.07;;;19.80;74.10;;;;;;5054277;28;20273;-61
2022/05/26 09:27:49;;;;;;;5.97;3.50;;;19.80;75.60;;;;;;5053838;28;20186;-61
2022/05/26 09:30:25;;;;;;;3.47;2.93;;;19.90;74.40;;;;;;5053145;28;20181;-60
2022/05/26 09:32:52;;;;;;;5.77;3.23;;;20.00;74.90;;;;;;5071736;28;20192;-60
2022/05/26 09:35:23;;;;;;;5.53;3.13;;;20.00;73.00;;;;;;5072572;28;20219;-61
2022/05/26 09:37:55;;;;;;;4.83;2.70;;;20.00;71.50;;;;;;5072856;28;20597;-61
2022/05/26 09:40:24;;;;;;;5.90;3.20;;;20.10;73.30;;;;;;5069941;28;20186;-61
2022/05/26 09:42:56;;;;;;;6.53;3.53;;;20.10;70.80;;;;;;5063785;28;20233;-61
2022/05/26 09:45:23;;;;;;;5.17;3.20;;;20.20;70.40;;;;;;5072537;28;20272;-60
2022/05/26 09:48:00;;;;;;;5.37;3.13;;;20.10;67.70;;;;;;5057062;28;20189;-61
2022/05/26 09:50:37;;;;;;;3.07;2.57;;;20.10;70.40;;;;;;5074368;28;20181;-60
2022/05/26 09:53:09;;;;;;;6.47;2.47;;;20.10;68.90;;;;;;5072216;28;20186;-61
2022/05/26 09:55:50;;;;;;;3.30;2.90;;;20.10;69.00;;;;;;5073780;28;20162;-61
2022/05/26 09:58:34;;;;;;;3.77;2.80;;;20.00;68.90;;;;;;5072514;28;20258;-61
2022/05/26 10:01:07;;;;;;;4.67;2.90;;;20.00;69.80;;;;;;5073917;28;20185;-61
2022/05/26 10:03:36;;;;;;;5.93;2.70;;;20.00;71.60;;;;;;5072819;28;20202;-61
2022/05/26 10:06:15;;;;;;;2.90;2.27;;;20.00;72.60;;;;;;5071689;28;20182;-61
2022/05/26 10:09:03;;;;;;;3.43;2.40;;;20.00;73.20;;;;;;5073154;28;20185;-61
2022/05/26 10:11:57;;;;;;;4.60;2.70;;;20.10;75.10;;;;;;5053174;28;20182;-61
2022/05/26 10:14:45;;;;;;;4.90;2.70;;;20.20;76.20;;;;;;5058789;28;20182;-61
2022/05/26 10:17:30;;;;;;;6.23;2.80;;;20.30;72.20;;;;;;5072132;28;20223;-62
2022/05/26 10:20:26;;;;;;;6.07;2.93;;;20.40;72.40;;;;;;5071388;28;20222;-62
2022/05/26 10:23:04;;;;;;;4.00;2.23;;;20.50;72.80;;;;;;5056588;28;20199;-62
2022/05/26 10:25:43;;;;;;;5.53;2.80;;;20.60;73.60;;;;;;5080299;28;20185;-61
2022/05/26 10:28:21;;;;;;;3.93;2.53;;;20.80;71.70;;;;;;5055141;28;20241;-61
2022/05/26 10:30:57;;;;;;;6.07;2.80;;;20.80;70.20;;;;;;5059776;28;20175;-61
2022/05/26 10:34:05;;;;;;;4.90;2.43;;;20.80;69.70;;;;;;5080953;28;20190;-61
2022/05/26 10:36:40;;;;;;;6.20;3.00;;;20.80;70.80;;;;;;5051607;28;20232;-61
2022/05/26 10:39:16;;;;;;;2.93;2.50;;;20.80;72.10;;;;;;5052411;28;20186;-61
2022/05/26 10:41:55;;;;;;;4.67;2.40;;;20.80;71.10;;;;;;5053626;28;20297;-62
2022/05/26 10:44:24;;;;;;;3.63;2.60;;;20.90;71.20;;;;;;5060775;28;20214;-61
2022/05/26 10:47:04;;;;;;;3.53;2.70;;;20.90;69.20;;;;;;5054123;28;20213;-61
2022/05/26 10:49:49;;;;;;;2.93;2.53;;;20.90;71.20;;;;;;5068157;28;20193;-62
2022/05/26 10:52:26;;;;;;;7.47;2.90;;;20.90;71.00;;;;;;5058566;28;20245;-61
2022/05/26 10:55:06;;;;;;;2.63;2.20;;;20.90;69.40;;;;;;5072613;28;20182;-62
2022/05/26 10:57:53;;;;;;;3.20;2.50;;;21.00;69.80;;;;;;5067405;28;20177;-62
2022/05/26 11:00:24;;;;;;;4.37;2.07;;;21.10;69.00;;;;;;5054329;28;20190;-61
2022/05/26 11:03:01;;;;;;;5.57;2.70;;;21.20;69.70;;;;;;5056793;28;20232;-62
2022/05/26 11:05:27;;;;;;;3.83;2.43;;;21.20;70.30;;;;;;5071380;28;20185;-61
2022/05/26 11:07:58;;;;;;;4.10;2.53;;;21.30;72.20;;;;;;5062622;28;20186;-60
2022/05/26 11:10:31;;;;;;;2.93;2.40;;;21.30;72.10;;;;;;5061652;28;20615;-60
2022/05/26 11:13:27;;;;;;;3.27;2.17;;;21.40;70.50;;;;;;5066102;28;20198;-61
2022/05/26 11:19:12;;;;;;;3.53;2.20;;;21.30;63.30;;;;;;5053102;28;20193;-62
2022/05/26 11:21:37;;;;;;;2.70;2.20;;;21.30;66.80;;;;;;5068495;28;20185;-60
2022/05/26 11:24:08;;;;;;;2.53;2.00;;;21.30;67.20;;;;;;5071814;28;20240;-61
2022/05/26 11:26:45;;;;;;;3.87;2.03;;;21.30;67.00;;;;;;5070169;28;20186;-60
2022/05/26 11:29:37;;;;;;;1.73;1.40;;;21.30;66.90;;;;;;5071932;28;20390;-60
2022/05/26 11:37:53;;;;;;;2.50;2.30;;;21.60;64.50;;;;;;5053353;28;20197;-60
2022/05/26 11:40:29;;;;;;;2.30;1.63;;;21.70;66.40;;;;;;5051104;28;20181;-61
2022/05/26 11:42:58;;;;;;;2.30;2.00;;;21.80;65.90;;;;;;5054775;28;20239;-61
2022/05/26 11:45:30;;;;;;;3.03;1.83;;;22.00;65.30;;;;;;5055166;28;20185;-60
2022/05/26 11:48:27;;;;;;;2.27;1.83;;;22.30;64.50;;;;;;5054078;28;20186;-62
2022/05/26 11:50:56;;;;;;;1.80;1.40;;;22.60;62.70;;;;;;5057893;28;20208;-62
2022/05/26 11:53:28;;;;;;;2.10;1.70;;;22.90;62.60;;;;;;5050967;28;20268;-63
2022/05/26 11:56:05;;;;;;;1.60;1.40;;;23.30;62.20;;;;;;5067113;28;20244;-62
2022/05/26 11:58:42;;;;;;;2.07;1.70;;;23.60;60.60;;;;;;5052379;28;20181;-62
2022/05/26 12:01:21;;;;;;;3.50;1.60;;;24.00;58.30;;;;;;5054840;28;20189;-62
2022/05/26 12:04:01;;;;;;;1.87;1.40;;;24.50;58.10;;;;;;5071141;28;20233;-62
2022/05/26 12:06:33;;;;;;;1.60;1.40;;;25.10;55.40;;;;;;5069572;28;20182;-61
2022/05/26 12:09:03;;;;;;;4.53;2.00;;;25.40;53.90;;;;;;5072497;28;20190;-62
2022/05/26 12:11:51;;;;;;;1.90;1.40;;;25.50;54.50;;;;;;5056394;28;20159;-61
2022/05/26 12:14:31;;;;;;;1.70;1.20;;;25.40;55.60;;;;;;5055914;28;20193;-62
2022/05/26 12:17:35;;;;;;;3.83;1.30;;;25.50;56.20;;;;;;5073732;28;20197;-62
2022/05/26 12:20:09;;;;;;;4.43;1.63;;;25.60;57.50;;;;;;5042171;28;20244;-61
2022/05/26 12:22:37;;;;;;;2.23;1.10;;;25.90;57.20;;;;;;5064183;28;20217;-61
2022/05/26 12:25:29;;;;;;;2.83;1.30;;;26.20;56.70;;;;;;5054772;28;20189;-61
2022/05/26 12:28:15;;;;;;;4.53;1.70;;;26.30;54.50;;;;;;5053899;28;20186;-61
2022/05/26 12:30:48;;;;;;;1.90;1.03;;;26.20;51.70;;;;;;5053939;28;20250;-60
2022/05/26 12:33:29;;;;;;;2.17;1.30;;;26.30;54.70;;;;;;5058837;28;20166;-61
2022/05/26 12:36:23;;;;;;;3.80;1.30;;;26.20;50.40;;;;;;5075289;28;20181;-62
2022/05/26 12:39:32;;;;;;;1.47;1.37;;;26.30;49.40;;;;;;5070596;28;20224;-62
2022/05/26 12:42:16;;;;;;;1.60;1.03;;;26.30;48.70;;;;;;5055794;28;20291;-62
2022/05/26 12:45:04;;;;;;;2.57;1.17;;;26.10;46.60;;;;;;5067152;28;20194;-62
2022/05/26 12:48:00;;;;;;;2.33;1.23;;;25.70;48.80;;;;;;5055067;28;20182;-62
2022/05/26 12:50:26;;;;;;;3.20;2.07;;;25.60;51.90;;;;;;5053894;28;20186;-60
2022/05/26 12:52:55;;;;;;;3.83;1.40;;;25.60;50.40;;;;;;5054976;28;20201;-60
2022/05/26 12:55:32;;;;;;;1.90;1.60;;;25.60;48.00;;;;;;5067848;28;20192;-60
2022/05/26 12:58:15;;;;;;;2.87;1.70;;;25.20;49.00;;;;;;5074510;28;20227;-60
2022/05/26 13:00:44;;;;;;;3.73;1.20;;;25.20;53.40;;;;;;5073403;28;20203;-60
2022/05/26 13:03:19;;;;;;;3.13;1.90;;;25.30;55.60;;;;;;5073303;28;20202;-60
2022/05/26 13:05:51;;;;;;;5.20;2.10;;;25.40;55.10;;;;;;5074299;28;20188;-60
2022/05/26 13:08:20;;;;;;;2.87;1.70;;;25.40;51.70;;;;;;5073914;28;20193;-60
2022/05/26 13:10:47;;;;;;;2.53;1.70;;;25.70;55.20;;;;;;5073944;28;20253;-60
2022/05/26 13:13:28;;;;;;;2.83;1.43;;;26.20;51.60;;;;;;5057300;28;20185;-60
2022/05/26 13:16:21;;;;;;;3.67;1.40;;;26.70;53.60;;;;;;5073496;28;20293;-60
2022/05/26 13:18:47;;;;;;;1.70;1.17;;;27.20;50.40;;;;;;5054293;28;20244;-61
2022/05/26 13:21:22;;;;;;;4.67;1.20;;;27.60;49.40;;;;;;5053164;28;20214;-60
2022/05/26 13:23:52;;;;;;;1.70;1.00;;;27.90;48.40;;;;;;5073395;28;20224;-60
2022/05/26 13:26:19;;;;;;;1.40;1.30;;;28.00;44.90;;;;;;5074225;28;20190;-61
2022/05/26 13:28:53;;;;;;;1.37;1.27;;;28.20;46.80;;;;;;5055917;28;20190;-60
2022/05/26 13:34:06;;;;;;;2.07;1.20;;;27.80;42.90;;;;;;5075651;28;20178;-61
2022/05/26 13:36:39;;;;;;;3.67;1.33;;;28.40;45.90;;;;;;5056659;28;20201;-61
2022/05/26 13:39:11;;;;;;;1.80;1.23;;;28.80;44.60;;;;;;5073109;28;20170;-60
2022/05/26 13:41:39;;;;;;;1.33;1.10;;;28.80;43.20;;;;;;5072166;28;20240;-60
2022/05/26 13:44:08;;;;;;;2.90;1.03;;;28.90;41.60;;;;;;5075063;28;20205;-60
2022/05/26 13:46:50;;;;;;;1.20;0.90;;;29.00;42.50;;;;;;5072352;28;20214;-60
2022/05/26 13:49:36;;;;;;;1.10;1.00;;;29.00;41.30;;;;;;5073866;28;20187;-60
2022/05/26 13:52:23;;;;;;;0.93;0.80;;;29.00;40.60;;;;;;5074490;28;20158;-60
2022/05/26 13:54:54;;;;;;;4.40;1.60;;;28.40;38.00;;;;;;5073590;28;20186;-60
2022/05/26 13:57:21;;;;;;;2.00;0.90;;;28.60;42.20;;;;;;5073588;28;20239;-60